sensor_id;sensor_type;location;lat;lon;timestamp;P1;durP1;ratioP1;P2;durP2;ratioP2
34673;SDS011;20879;55.668;37.858;2024-03-02T00:03:52;40.10;;;23.30;;
34673;SDS011;20879;55.668;37.858;2024-03-02T00:09:08;36.38;;;21.33;;
34673;SDS011;20879;55.668;37.858;2024-03-02T00:14:24;44.22;;;23.42;;
34673;SDS011;20879;55.668;37.858;2024-03-02T00:19:38;41.63;;;23.00;;
34673;SDS011;20879;55.668;37.858;2024-03-02T00:24:52;40.03;;;23.30;;
34673;SDS011;20879;55.668;37.858;2024-03-02T00:30:01;43.00;;;23.38;;
34673;SDS011;20879;55.668;37.858;2024-03-02T00:35:24;37.67;;;22.35;;
34673;SDS011;20879;55.668;37.858;2024-03-02T00:40:33;44.70;;;23.45;;
34673;SDS011;20879;55.668;37.858;2024-03-02T00:45:39;48.53;;;24.83;;
34673;SDS011;20879;55.668;37.858;2024-03-02T00:50:52;43.55;;;23.85;;
34673;SDS011;20879;55.668;37.858;2024-03-02T00:56:03;44.33;;;25.35;;
34673;SDS011;20879;55.668;37.858;2024-03-02T01:01:20;44.25;;;23.83;;
34673;SDS011;20879;55.668;37.858;2024-03-02T01:06:34;43.38;;;24.27;;
34673;SDS011;20879;55.668;37.858;2024-03-02T01:11:49;40.95;;;23.70;;
34673;SDS011;20879;55.668;37.858;2024-03-02T01:16:59;42.30;;;23.42;;
34673;SDS011;20879;55.668;37.858;2024-03-02T01:22:12;39.38;;;21.88;;
34673;SDS011;20879;55.668;37.858;2024-03-02T01:27:26;42.58;;;22.98;;
34673;SDS011;20879;55.668;37.858;2024-03-02T01:32:34;37.95;;;23.20;;
34673;SDS011;20879;55.668;37.858;2024-03-02T01:38:02;38.60;;;22.45;;
34673;SDS011;20879;55.668;37.858;2024-03-02T01:43:12;41.55;;;24.88;;
34673;SDS011;20879;55.668;37.858;2024-03-02T01:48:18;40.47;;;23.20;;
34673;SDS011;20879;55.668;37.858;2024-03-02T01:53:26;39.33;;;21.92;;
34673;SDS011;20879;55.668;37.858;2024-03-02T01:58:37;36.10;;;21.77;;
34673;SDS011;20879;55.668;37.858;2024-03-02T02:03:48;40.85;;;23.98;;
34673;SDS011;20879;55.668;37.858;2024-03-02T02:08:57;41.53;;;24.15;;
34673;SDS011;20879;55.668;37.858;2024-03-02T02:14:14;43.00;;;23.90;;
34673;SDS011;20879;55.668;37.858;2024-03-02T02:19:21;41.55;;;23.63;;
34673;SDS011;20879;55.668;37.858;2024-03-02T02:24:41;41.10;;;23.30;;
34673;SDS011;20879;55.668;37.858;2024-03-02T02:29:59;49.72;;;26.15;;
34673;SDS011;20879;55.668;37.858;2024-03-02T02:35:08;47.00;;;25.80;;
34673;SDS011;20879;55.668;37.858;2024-03-02T02:40:19;46.22;;;25.27;;
34673;SDS011;20879;55.668;37.858;2024-03-02T02:45:27;42.45;;;24.92;;
34673;SDS011;20879;55.668;37.858;2024-03-02T02:50:34;51.28;;;25.38;;
34673;SDS011;20879;55.668;37.858;2024-03-02T02:55:44;41.22;;;24.35;;
34673;SDS011;20879;55.668;37.858;2024-03-02T03:00:53;43.38;;;24.77;;
34673;SDS011;20879;55.668;37.858;2024-03-02T03:06:18;43.17;;;25.50;;
34673;SDS011;20879;55.668;37.858;2024-03-02T03:11:31;51.63;;;27.85;;
34673;SDS011;20879;55.668;37.858;2024-03-02T03:16:46;42.85;;;25.80;;
34673;SDS011;20879;55.668;37.858;2024-03-02T03:21:58;47.75;;;26.67;;
34673;SDS011;20879;55.668;37.858;2024-03-02T03:27:10;47.53;;;26.55;;
34673;SDS011;20879;55.668;37.858;2024-03-02T03:32:19;42.58;;;23.90;;
34673;SDS011;20879;55.668;37.858;2024-03-02T03:37:25;51.67;;;27.63;;
34673;SDS011;20879;55.668;37.858;2024-03-02T03:42:48;47.00;;;24.38;;
34673;SDS011;20879;55.668;37.858;2024-03-02T03:47:56;45.42;;;25.30;;
34673;SDS011;20879;55.668;37.858;2024-03-02T03:53:05;49.00;;;25.95;;
34673;SDS011;20879;55.668;37.858;2024-03-02T03:58:14;48.45;;;26.60;;
34673;SDS011;20879;55.668;37.858;2024-03-02T04:03:26;51.30;;;26.70;;
34673;SDS011;20879;55.668;37.858;2024-03-02T04:08:40;55.90;;;27.48;;
34673;SDS011;20879;55.668;37.858;2024-03-02T04:13:59;48.45;;;24.75;;
34673;SDS011;20879;55.668;37.858;2024-03-02T04:19:12;47.55;;;26.90;;
34673;SDS011;20879;55.668;37.858;2024-03-02T04:24:22;50.85;;;27.27;;
34673;SDS011;20879;55.668;37.858;2024-03-02T04:29:34;54.92;;;28.48;;
34673;SDS011;20879;55.668;37.858;2024-03-02T04:34:44;48.40;;;27.98;;
34673;SDS011;20879;55.668;37.858;2024-03-02T04:40:01;60.45;;;34.05;;
34673;SDS011;20879;55.668;37.858;2024-03-02T04:45:22;57.35;;;33.30;;
34673;SDS011;20879;55.668;37.858;2024-03-02T04:50:32;66.27;;;35.80;;
34673;SDS011;20879;55.668;37.858;2024-03-02T04:55:47;68.95;;;37.83;;
34673;SDS011;20879;55.668;37.858;2024-03-02T05:01:07;76.40;;;44.85;;
34673;SDS011;20879;55.668;37.858;2024-03-02T05:06:18;72.43;;;42.70;;
34673;SDS011;20879;55.668;37.858;2024-03-02T05:11:30;74.43;;;44.63;;
34673;SDS011;20879;55.668;37.858;2024-03-02T05:17:05;67.82;;;37.92;;
34673;SDS011;20879;55.668;37.858;2024-03-02T05:22:24;63.80;;;37.35;;
34673;SDS011;20879;55.668;37.858;2024-03-02T05:27:38;67.87;;;35.03;;
34673;SDS011;20879;55.668;37.858;2024-03-02T05:32:45;61.40;;;35.80;;
34673;SDS011;20879;55.668;37.858;2024-03-02T05:38:03;63.25;;;33.95;;
34673;SDS011;20879;55.668;37.858;2024-03-02T05:43:17;57.40;;;32.00;;
34673;SDS011;20879;55.668;37.858;2024-03-02T05:48:43;49.03;;;27.90;;
34673;SDS011;20879;55.668;37.858;2024-03-02T05:53:50;57.20;;;30.27;;
34673;SDS011;20879;55.668;37.858;2024-03-02T05:59:02;60.15;;;30.38;;
34673;SDS011;20879;55.668;37.858;2024-03-02T06:04:29;63.20;;;30.55;;
34673;SDS011;20879;55.668;37.858;2024-03-02T06:09:42;48.53;;;23.98;;
34673;SDS011;20879;55.668;37.858;2024-03-02T06:14:53;46.70;;;25.70;;
34673;SDS011;20879;55.668;37.858;2024-03-02T06:25:15;50.92;;;28.65;;
34673;SDS011;20879;55.668;37.858;2024-03-02T06:30:29;53.45;;;31.38;;
34673;SDS011;20879;55.668;37.858;2024-03-02T06:35:41;49.80;;;28.55;;
34673;SDS011;20879;55.668;37.858;2024-03-02T06:40:52;53.85;;;30.02;;
34673;SDS011;20879;55.668;37.858;2024-03-02T06:46:00;46.22;;;27.67;;
34673;SDS011;20879;55.668;37.858;2024-03-02T06:51:09;53.53;;;30.73;;
34673;SDS011;20879;55.668;37.858;2024-03-02T06:56:21;49.38;;;27.88;;
34673;SDS011;20879;55.668;37.858;2024-03-02T07:01:37;49.33;;;29.60;;
34673;SDS011;20879;55.668;37.858;2024-03-02T07:11:59;51.45;;;30.45;;
34673;SDS011;20879;55.668;37.858;2024-03-02T07:17:06;52.97;;;29.98;;
34673;SDS011;20879;55.668;37.858;2024-03-02T07:22:21;53.58;;;30.63;;
34673;SDS011;20879;55.668;37.858;2024-03-02T07:27:28;56.03;;;30.88;;
34673;SDS011;20879;55.668;37.858;2024-03-02T07:32:40;43.42;;;23.80;;
34673;SDS011;20879;55.668;37.858;2024-03-02T07:43:33;49.15;;;26.83;;
34673;SDS011;20879;55.668;37.858;2024-03-02T07:48:46;47.85;;;27.13;;
34673;SDS011;20879;55.668;37.858;2024-03-02T07:53:56;49.35;;;28.17;;
34673;SDS011;20879;55.668;37.858;2024-03-02T07:59:03;48.45;;;27.02;;
34673;SDS011;20879;55.668;37.858;2024-03-02T08:04:10;45.97;;;26.60;;
34673;SDS011;20879;55.668;37.858;2024-03-02T08:09:23;49.40;;;27.38;;
34673;SDS011;20879;55.668;37.858;2024-03-02T08:14:30;48.90;;;28.15;;
34673;SDS011;20879;55.668;37.858;2024-03-02T08:19:40;48.88;;;29.45;;
34673;SDS011;20879;55.668;37.858;2024-03-02T08:24:49;48.15;;;28.42;;
34673;SDS011;20879;55.668;37.858;2024-03-02T08:30:03;48.22;;;26.83;;
34673;SDS011;20879;55.668;37.858;2024-03-02T08:35:15;48.72;;;28.05;;
34673;SDS011;20879;55.668;37.858;2024-03-02T08:40:23;46.88;;;27.42;;
34673;SDS011;20879;55.668;37.858;2024-03-02T08:45:31;42.38;;;26.83;;
34673;SDS011;20879;55.668;37.858;2024-03-02T08:50:39;44.25;;;26.83;;
34673;SDS011;20879;55.668;37.858;2024-03-02T08:55:51;51.38;;;28.63;;
34673;SDS011;20879;55.668;37.858;2024-03-02T09:00:58;43.10;;;27.70;;
34673;SDS011;20879;55.668;37.858;2024-03-02T09:06:16;45.00;;;27.67;;
34673;SDS011;20879;55.668;37.858;2024-03-02T09:11:26;44.55;;;27.85;;
34673;SDS011;20879;55.668;37.858;2024-03-02T09:16:37;43.75;;;26.13;;
34673;SDS011;20879;55.668;37.858;2024-03-02T09:21:50;43.95;;;28.48;;
34673;SDS011;20879;55.668;37.858;2024-03-02T09:27:07;47.38;;;27.92;;
34673;SDS011;20879;55.668;37.858;2024-03-02T09:32:21;49.17;;;27.65;;
34673;SDS011;20879;55.668;37.858;2024-03-02T09:37:30;47.10;;;26.50;;
34673;SDS011;20879;55.668;37.858;2024-03-02T09:42:46;47.15;;;28.50;;
34673;SDS011;20879;55.668;37.858;2024-03-02T09:48:00;47.85;;;27.77;;
34673;SDS011;20879;55.668;37.858;2024-03-02T09:53:06;41.47;;;26.55;;
34673;SDS011;20879;55.668;37.858;2024-03-02T09:58:19;43.75;;;27.40;;
34673;SDS011;20879;55.668;37.858;2024-03-02T10:03:24;40.30;;;24.67;;
34673;SDS011;20879;55.668;37.858;2024-03-02T10:08:37;43.15;;;25.20;;
34673;SDS011;20879;55.668;37.858;2024-03-02T10:14:17;39.67;;;25.48;;
34673;SDS011;20879;55.668;37.858;2024-03-02T10:19:41;41.00;;;25.17;;
34673;SDS011;20879;55.668;37.858;2024-03-02T10:24:48;41.10;;;25.48;;
34673;SDS011;20879;55.668;37.858;2024-03-02T10:30:05;39.13;;;25.05;;
34673;SDS011;20879;55.668;37.858;2024-03-02T10:35:41;40.58;;;26.27;;
34673;SDS011;20879;55.668;37.858;2024-03-02T10:40:53;44.58;;;28.98;;
34673;SDS011;20879;55.668;37.858;2024-03-02T10:46:12;45.30;;;27.52;;
34673;SDS011;20879;55.668;37.858;2024-03-02T10:51:33;45.50;;;26.35;;
34673;SDS011;20879;55.668;37.858;2024-03-02T10:56:52;40.90;;;25.40;;
34673;SDS011;20879;55.668;37.858;2024-03-02T11:02:21;43.67;;;26.35;;
34673;SDS011;20879;55.668;37.858;2024-03-02T11:07:31;43.20;;;27.08;;
34673;SDS011;20879;55.668;37.858;2024-03-02T11:12:55;46.17;;;26.63;;
34673;SDS011;20879;55.668;37.858;2024-03-02T11:18:15;42.42;;;26.02;;
34673;SDS011;20879;55.668;37.858;2024-03-02T11:23:31;46.47;;;27.88;;
34673;SDS011;20879;55.668;37.858;2024-03-02T11:28:40;42.85;;;26.40;;
34673;SDS011;20879;55.668;37.858;2024-03-02T11:33:52;43.58;;;27.08;;
34673;SDS011;20879;55.668;37.858;2024-03-02T11:39:00;42.78;;;25.77;;
34673;SDS011;20879;55.668;37.858;2024-03-02T11:44:10;37.30;;;22.45;;
34673;SDS011;20879;55.668;37.858;2024-03-02T11:49:23;29.20;;;17.98;;
34673;SDS011;20879;55.668;37.858;2024-03-02T11:54:47;32.78;;;18.15;;
34673;SDS011;20879;55.668;37.858;2024-03-02T11:59:54;36.35;;;21.17;;
34673;SDS011;20879;55.668;37.858;2024-03-02T12:05:25;35.80;;;20.17;;
34673;SDS011;20879;55.668;37.858;2024-03-02T12:10:39;31.17;;;17.77;;
34673;SDS011;20879;55.668;37.858;2024-03-02T12:15:46;32.28;;;18.45;;
34673;SDS011;20879;55.668;37.858;2024-03-02T12:21:02;30.13;;;18.50;;
34673;SDS011;20879;55.668;37.858;2024-03-02T12:26:15;33.20;;;19.15;;
34673;SDS011;20879;55.668;37.858;2024-03-02T12:31:28;38.60;;;20.23;;
34673;SDS011;20879;55.668;37.858;2024-03-02T12:36:42;36.58;;;21.00;;
34673;SDS011;20879;55.668;37.858;2024-03-02T12:47:59;37.60;;;21.00;;
34673;SDS011;20879;55.668;37.858;2024-03-02T12:53:13;32.85;;;19.13;;
34673;SDS011;20879;55.668;37.858;2024-03-02T12:58:20;29.90;;;17.30;;
34673;SDS011;20879;55.668;37.858;2024-03-02T13:03:30;33.55;;;17.52;;
34673;SDS011;20879;55.668;37.858;2024-03-02T13:08:40;31.52;;;16.60;;
34673;SDS011;20879;55.668;37.858;2024-03-02T13:13:49;33.55;;;17.95;;
34673;SDS011;20879;55.668;37.858;2024-03-02T13:19:02;33.80;;;17.13;;
34673;SDS011;20879;55.668;37.858;2024-03-02T13:24:10;31.67;;;18.40;;
34673;SDS011;20879;55.668;37.858;2024-03-02T13:29:18;29.85;;;17.10;;
34673;SDS011;20879;55.668;37.858;2024-03-02T13:34:35;32.30;;;19.13;;
34673;SDS011;20879;55.668;37.858;2024-03-02T13:39:42;34.13;;;18.38;;
34673;SDS011;20879;55.668;37.858;2024-03-02T13:44:47;30.27;;;15.60;;
34673;SDS011;20879;55.668;37.858;2024-03-02T13:50:03;26.90;;;13.02;;
34673;SDS011;20879;55.668;37.858;2024-03-02T13:55:10;33.75;;;13.73;;
34673;SDS011;20879;55.668;37.858;2024-03-02T14:00:20;25.92;;;13.68;;
34673;SDS011;20879;55.668;37.858;2024-03-02T14:05:28;21.45;;;12.13;;
34673;SDS011;20879;55.668;37.858;2024-03-02T14:10:34;23.73;;;12.35;;
34673;SDS011;20879;55.668;37.858;2024-03-02T14:15:53;24.08;;;11.70;;
34673;SDS011;20879;55.668;37.858;2024-03-02T14:21:04;25.58;;;12.55;;
34673;SDS011;20879;55.668;37.858;2024-03-02T14:26:11;28.92;;;13.65;;
34673;SDS011;20879;55.668;37.858;2024-03-02T14:31:23;32.60;;;14.02;;
34673;SDS011;20879;55.668;37.858;2024-03-02T14:36:40;29.77;;;12.30;;
34673;SDS011;20879;55.668;37.858;2024-03-02T14:41:48;27.58;;;14.57;;
34673;SDS011;20879;55.668;37.858;2024-03-02T14:46:59;27.75;;;14.75;;
34673;SDS011;20879;55.668;37.858;2024-03-02T14:52:13;24.00;;;15.02;;
34673;SDS011;20879;55.668;37.858;2024-03-02T14:57:27;29.38;;;14.25;;
34673;SDS011;20879;55.668;37.858;2024-03-02T15:02:33;26.38;;;15.20;;
34673;SDS011;20879;55.668;37.858;2024-03-02T15:07:46;32.40;;;15.68;;
34673;SDS011;20879;55.668;37.858;2024-03-02T15:12:54;27.45;;;14.45;;
34673;SDS011;20879;55.668;37.858;2024-03-02T15:18:05;26.98;;;14.38;;
34673;SDS011;20879;55.668;37.858;2024-03-02T15:23:19;30.50;;;14.25;;
34673;SDS011;20879;55.668;37.858;2024-03-02T15:28:36;31.52;;;15.85;;
34673;SDS011;20879;55.668;37.858;2024-03-02T15:33:44;31.15;;;15.10;;
34673;SDS011;20879;55.668;37.858;2024-03-02T15:38:52;28.13;;;15.05;;
34673;SDS011;20879;55.668;37.858;2024-03-02T15:43:57;26.40;;;15.25;;
34673;SDS011;20879;55.668;37.858;2024-03-02T15:49:04;26.70;;;15.25;;
34673;SDS011;20879;55.668;37.858;2024-03-02T15:54:15;26.70;;;14.50;;
34673;SDS011;20879;55.668;37.858;2024-03-02T15:59:28;32.42;;;17.73;;
34673;SDS011;20879;55.668;37.858;2024-03-02T16:04:44;28.75;;;17.50;;
34673;SDS011;20879;55.668;37.858;2024-03-02T16:10:09;31.35;;;18.83;;
34673;SDS011;20879;55.668;37.858;2024-03-02T16:15:16;33.63;;;18.67;;
34673;SDS011;20879;55.668;37.858;2024-03-02T16:20:31;36.83;;;17.98;;
34673;SDS011;20879;55.668;37.858;2024-03-02T16:25:43;36.47;;;20.17;;
34673;SDS011;20879;55.668;37.858;2024-03-02T16:30:51;29.70;;;17.38;;
34673;SDS011;20879;55.668;37.858;2024-03-02T16:36:10;36.30;;;18.75;;
34673;SDS011;20879;55.668;37.858;2024-03-02T16:41:25;31.40;;;19.17;;
34673;SDS011;20879;55.668;37.858;2024-03-02T16:46:40;33.92;;;20.60;;
34673;SDS011;20879;55.668;37.858;2024-03-02T16:51:54;40.40;;;23.10;;
34673;SDS011;20879;55.668;37.858;2024-03-02T16:57:05;33.92;;;19.60;;
34673;SDS011;20879;55.668;37.858;2024-03-02T17:07:43;31.38;;;19.00;;
34673;SDS011;20879;55.668;37.858;2024-03-02T17:12:54;33.72;;;19.30;;
34673;SDS011;20879;55.668;37.858;2024-03-02T17:18:04;34.05;;;19.55;;
34673;SDS011;20879;55.668;37.858;2024-03-02T17:23:20;32.88;;;18.70;;
34673;SDS011;20879;55.668;37.858;2024-03-02T17:28:34;33.25;;;19.05;;
34673;SDS011;20879;55.668;37.858;2024-03-02T17:33:42;36.22;;;20.33;;
34673;SDS011;20879;55.668;37.858;2024-03-02T17:38:54;34.50;;;20.38;;
34673;SDS011;20879;55.668;37.858;2024-03-02T17:44:13;35.25;;;20.38;;
34673;SDS011;20879;55.668;37.858;2024-03-02T17:49:19;32.65;;;20.92;;
34673;SDS011;20879;55.668;37.858;2024-03-02T17:54:26;39.95;;;21.23;;
34673;SDS011;20879;55.668;37.858;2024-03-02T17:59:35;33.15;;;20.13;;
34673;SDS011;20879;55.668;37.858;2024-03-02T18:10:07;30.80;;;18.85;;
34673;SDS011;20879;55.668;37.858;2024-03-02T18:15:16;33.33;;;19.33;;
34673;SDS011;20879;55.668;37.858;2024-03-02T18:25:53;32.95;;;20.30;;
34673;SDS011;20879;55.668;37.858;2024-03-02T18:31:08;35.92;;;18.05;;
34673;SDS011;20879;55.668;37.858;2024-03-02T18:36:22;39.03;;;22.35;;
34673;SDS011;20879;55.668;37.858;2024-03-02T18:41:28;36.33;;;21.17;;
34673;SDS011;20879;55.668;37.858;2024-03-02T18:46:47;41.40;;;23.23;;
34673;SDS011;20879;55.668;37.858;2024-03-02T18:51:58;37.75;;;21.88;;
34673;SDS011;20879;55.668;37.858;2024-03-02T18:57:06;33.72;;;19.95;;
34673;SDS011;20879;55.668;37.858;2024-03-02T19:02:25;33.83;;;18.80;;
34673;SDS011;20879;55.668;37.858;2024-03-02T19:07:35;32.38;;;18.80;;
34673;SDS011;20879;55.668;37.858;2024-03-02T19:12:55;26.50;;;16.23;;
34673;SDS011;20879;55.668;37.858;2024-03-02T19:18:10;36.88;;;19.70;;
34673;SDS011;20879;55.668;37.858;2024-03-02T19:23:19;34.88;;;21.55;;
34673;SDS011;20879;55.668;37.858;2024-03-02T19:28:41;40.20;;;22.58;;
34673;SDS011;20879;55.668;37.858;2024-03-02T19:33:54;38.95;;;22.33;;
34673;SDS011;20879;55.668;37.858;2024-03-02T19:39:03;32.42;;;20.52;;
34673;SDS011;20879;55.668;37.858;2024-03-02T19:44:22;34.15;;;22.08;;
34673;SDS011;20879;55.668;37.858;2024-03-02T19:49:47;37.38;;;23.00;;
34673;SDS011;20879;55.668;37.858;2024-03-02T19:55:04;34.35;;;19.88;;
34673;SDS011;20879;55.668;37.858;2024-03-02T20:05:48;29.75;;;16.55;;
34673;SDS011;20879;55.668;37.858;2024-03-02T20:11:01;32.28;;;20.42;;
34673;SDS011;20879;55.668;37.858;2024-03-02T20:16:07;31.65;;;20.25;;
34673;SDS011;20879;55.668;37.858;2024-03-02T20:21:36;32.70;;;21.63;;
34673;SDS011;20879;55.668;37.858;2024-03-02T20:26:45;33.28;;;19.90;;
34673;SDS011;20879;55.668;37.858;2024-03-02T20:31:58;32.38;;;20.50;;
34673;SDS011;20879;55.668;37.858;2024-03-02T20:37:22;30.75;;;18.77;;
34673;SDS011;20879;55.668;37.858;2024-03-02T20:42:39;34.08;;;20.65;;
34673;SDS011;20879;55.668;37.858;2024-03-02T20:47:50;29.75;;;19.77;;
34673;SDS011;20879;55.668;37.858;2024-03-02T20:53:03;29.90;;;18.30;;
34673;SDS011;20879;55.668;37.858;2024-03-02T20:58:15;30.17;;;18.15;;
34673;SDS011;20879;55.668;37.858;2024-03-02T21:03:27;27.75;;;17.13;;
34673;SDS011;20879;55.668;37.858;2024-03-02T21:08:46;28.00;;;17.58;;
34673;SDS011;20879;55.668;37.858;2024-03-02T21:13:56;29.95;;;17.50;;
34673;SDS011;20879;55.668;37.858;2024-03-02T21:19:05;32.60;;;17.85;;
34673;SDS011;20879;55.668;37.858;2024-03-02T21:24:20;35.42;;;16.30;;
34673;SDS011;20879;55.668;37.858;2024-03-02T21:29:33;25.70;;;14.95;;
34673;SDS011;20879;55.668;37.858;2024-03-02T21:34:44;30.23;;;16.17;;
34673;SDS011;20879;55.668;37.858;2024-03-02T21:40:02;27.02;;;14.70;;
34673;SDS011;20879;55.668;37.858;2024-03-02T21:50:30;23.73;;;12.18;;
34673;SDS011;20879;55.668;37.858;2024-03-02T21:55:44;23.55;;;11.85;;
34673;SDS011;20879;55.668;37.858;2024-03-02T22:00:52;22.48;;;11.43;;
34673;SDS011;20879;55.668;37.858;2024-03-02T22:06:04;20.75;;;12.10;;
34673;SDS011;20879;55.668;37.858;2024-03-02T22:11:13;23.52;;;11.15;;
34673;SDS011;20879;55.668;37.858;2024-03-02T22:16:23;19.02;;;10.95;;
34673;SDS011;20879;55.668;37.858;2024-03-02T22:21:39;18.40;;;10.27;;
34673;SDS011;20879;55.668;37.858;2024-03-02T22:26:52;20.63;;;10.68;;
34673;SDS011;20879;55.668;37.858;2024-03-02T22:31:58;19.05;;;10.82;;
34673;SDS011;20879;55.668;37.858;2024-03-02T22:37:04;23.52;;;10.52;;
34673;SDS011;20879;55.668;37.858;2024-03-02T22:42:12;21.38;;;10.93;;
34673;SDS011;20879;55.668;37.858;2024-03-02T22:47:27;22.75;;;11.15;;
34673;SDS011;20879;55.668;37.858;2024-03-02T22:52:47;27.33;;;11.93;;
34673;SDS011;20879;55.668;37.858;2024-03-02T22:58:06;22.60;;;11.38;;
34673;SDS011;20879;55.668;37.858;2024-03-02T23:03:16;22.70;;;11.38;;
34673;SDS011;20879;55.668;37.858;2024-03-02T23:08:40;21.30;;;11.57;;
34673;SDS011;20879;55.668;37.858;2024-03-02T23:13:53;20.77;;;11.02;;
34673;SDS011;20879;55.668;37.858;2024-03-02T23:19:12;23.10;;;10.35;;
34673;SDS011;20879;55.668;37.858;2024-03-02T23:24:24;20.60;;;10.00;;
34673;SDS011;20879;55.668;37.858;2024-03-02T23:29:40;21.02;;;10.45;;
34673;SDS011;20879;55.668;37.858;2024-03-02T23:34:48;22.13;;;10.63;;
34673;SDS011;20879;55.668;37.858;2024-03-02T23:40:01;21.17;;;11.45;;
34673;SDS011;20879;55.668;37.858;2024-03-02T23:45:24;20.45;;;9.95;;
34673;SDS011;20879;55.668;37.858;2024-03-02T23:50:40;20.17;;;9.55;;
34673;SDS011;20879;55.668;37.858;2024-03-02T23:55:51;22.42;;;10.10;;
